Time;durP1;ratioP1;P1;durP2;ratioP2;P2;SDS_P1;SDS_P2;PMS_P1;PMS_P2;Temp;Humidity;BMP_temperature;BMP_pressure;BME280_temperature;BME280_humidity;BME280_pressure;Samples;Min_cycle;Max_cycle;Signal;HPM_P1;HPM_P2
2022/03/23 00:00:31;;;;;;;41.70;21.95;;;;;;;10.85;50.66;102175.59;5076760;28;20097;-43
2022/03/23 00:02:57;;;;;;;39.60;24.42;;;;;;;10.78;50.45;102166.44;5077788;28;20033;-42
2022/03/23 00:05:25;;;;;;;39.80;23.05;;;;;;;10.71;50.50;102171.56;5077337;28;20036;-43
2022/03/23 00:07:51;;;;;;;48.83;24.27;;;;;;;10.75;50.74;102178.31;5076296;28;20035;-44
2022/03/23 00:10:16;;;;;;;38.22;23.50;;;;;;;10.65;50.45;102166.81;5093107;28;20040;-43
2022/03/23 00:12:44;;;;;;;45.70;25.17;;;;;;;10.61;50.82;102178.88;5077385;28;20128;-45
2022/03/23 00:15:10;;;;;;;46.10;23.92;;;;;;;10.55;51.36;102182.16;5077624;28;20039;-41
2022/03/23 00:17:36;;;;;;;45.00;24.73;;;;;;;10.46;51.28;102163.25;5077265;28;20040;-42
2022/03/23 00:20:04;;;;;;;43.90;24.58;;;;;;;10.46;51.58;102168.63;5043004;28;20372;-42
2022/03/23 00:22:30;;;;;;;47.95;25.85;;;;;;;10.52;51.64;102179.78;5076945;28;20029;-45
2022/03/23 00:24:56;;;;;;;45.80;25.38;;;;;;;10.58;51.53;102166.56;5077770;28;20380;-43
2022/03/23 00:27:23;;;;;;;43.88;26.10;;;;;;;10.50;51.50;102174.56;5076068;28;20233;-42
2022/03/23 00:29:49;;;;;;;38.85;23.08;;;;;;;10.46;51.89;102181.22;5076954;28;20031;-41
2022/03/23 00:32:15;;;;;;;50.50;25.88;;;;;;;10.47;52.17;102185.59;5077465;28;20028;-45
2022/03/23 00:34:40;;;;;;;49.53;26.05;;;;;;;10.34;52.37;102158.25;5077489;28;20069;-45
2022/03/23 00:37:06;;;;;;;51.08;25.95;;;;;;;10.39;51.68;102172.06;5077452;28;20453;-43
2022/03/23 00:39:32;;;;;;;45.72;25.13;;;;;;;10.40;52.31;102180.00;5077882;28;20036;-44
2022/03/23 00:41:58;;;;;;;49.35;26.25;;;;;;;10.40;52.40;102189.88;5077246;28;20396;-42
2022/03/23 00:44:24;;;;;;;47.70;24.63;;;;;;;10.43;52.07;102179.66;5076598;28;20040;-45
2022/03/23 00:46:50;;;;;;;47.97;26.42;;;;;;;10.39;52.73;102182.81;5077263;28;20029;-43
2022/03/23 00:49:15;;;;;;;49.00;25.50;;;;;;;10.40;51.98;102184.50;5076822;28;20116;-44
2022/03/23 00:51:41;;;;;;;42.97;25.52;;;;;;;10.42;52.27;102185.22;5075149;28;20165;-43
2022/03/23 00:54:09;;;;;;;52.20;28.17;;;;;;;10.35;52.75;102186.81;5076734;28;20039;-43
2022/03/23 00:56:37;;;;;;;47.22;28.10;;;;;;;10.21;52.86;102180.03;5076723;28;20059;-42
2022/03/23 00:59:03;;;;;;;50.03;27.05;;;;;;;10.14;53.39;102178.94;5075218;28;20032;-42
2022/03/23 01:01:31;;;;;;;55.85;27.10;;;;;;;10.17;52.62;102175.97;5075152;28;20029;-43
2022/03/23 01:03:56;;;;;;;50.45;27.45;;;;;;;10.26;52.93;102196.56;5076736;28;20116;-41
2022/03/23 01:06:22;;;;;;;54.30;28.67;;;;;;;10.21;53.26;102188.09;5076870;28;20433;-43
2022/03/23 01:08:48;;;;;;;50.28;25.83;;;;;;;10.27;52.82;102184.84;5075297;28;20033;-44
2022/03/23 01:11:14;;;;;;;53.67;28.17;;;;;;;10.22;52.85;102192.50;5076973;28;20077;-42
2022/03/23 01:13:40;;;;;;;58.30;28.70;;;;;;;10.19;52.98;102182.88;5075972;28;20045;-42
2022/03/23 01:16:06;;;;;;;49.20;27.42;;;;;;;10.23;52.85;102184.28;5076481;28;20072;-44
2022/03/23 01:18:33;;;;;;;55.90;30.00;;;;;;;10.16;53.70;102185.88;5058440;28;20024;-43
2022/03/23 01:21:00;;;;;;;54.05;28.42;;;;;;;10.11;53.42;102185.47;5076682;28;20039;-45
2022/03/23 01:23:26;;;;;;;49.70;29.40;;;;;;;10.00;53.59;102183.81;5075599;28;20033;-45
2022/03/23 01:25:52;;;;;;;57.15;29.38;;;;;;;9.96;53.69;102186.94;5075508;28;20048;-46
2022/03/23 01:28:18;;;;;;;53.72;30.45;;;;;;;9.86;54.42;102185.16;5076431;28;20103;-43
2022/03/23 01:30:44;;;;;;;54.60;28.83;;;;;;;9.79;54.44;102185.88;5075335;28;20081;-43
2022/03/23 01:33:11;;;;;;;55.83;30.05;;;;;;;9.81;54.46;102184.72;5075686;28;20472;-45
2022/03/23 01:35:36;;;;;;;54.72;30.67;;;;;;;9.76;54.78;102180.78;5076115;28;20108;-43
2022/03/23 01:38:02;;;;;;;51.53;29.10;;;;;;;9.78;54.06;102176.13;5091713;28;20086;-42
2022/03/23 01:40:28;;;;;;;54.55;28.45;;;;;;;9.72;54.27;102172.19;5075548;28;20028;-45
2022/03/23 01:42:54;;;;;;;51.05;26.80;;;;;;;9.73;54.62;102175.72;5076260;28;20032;-43
2022/03/23 01:45:20;;;;;;;50.95;28.02;;;;;;;9.63;55.08;102167.69;5075885;28;20036;-43
2022/03/23 01:47:46;;;;;;;52.38;29.20;;;;;;;9.55;54.89;102170.28;5075414;28;20033;-42
2022/03/23 01:50:12;;;;;;;53.63;30.00;;;;;;;9.49;55.62;102169.00;5074321;28;20082;-42
2022/03/23 01:52:38;;;;;;;55.58;30.23;;;;;;;9.47;54.95;102169.16;5075377;28;20385;-42
2022/03/23 01:55:08;;;;;;;52.17;29.13;;;;;;;9.43;55.66;102172.25;5075241;28;20033;-42
2022/03/23 01:57:35;;;;;;;47.05;27.05;;;;;;;9.34;55.76;102171.28;5073824;28;20373;-42
2022/03/23 02:00:02;;;;;;;49.50;28.30;;;;;;;9.13;55.89;102149.16;5074700;28;20067;-42
2022/03/23 02:02:28;;;;;;;40.60;25.58;;;;;;;9.18;56.07;102171.03;5074192;28;20432;-42
2022/03/23 02:04:54;;;;;;;50.58;28.45;;;;;;;9.06;56.82;102163.16;5073737;28;20090;-42
2022/03/23 02:07:20;;;;;;;49.30;27.60;;;;;;;9.06;56.65;102170.31;5074859;28;20036;-42
2022/03/23 02:09:45;;;;;;;53.25;30.73;;;;;;;9.01;56.81;102167.22;5074963;28;20042;-42
2022/03/23 02:12:11;;;;;;;53.47;27.55;;;;;;;8.90;56.96;102152.97;5073379;28;20120;-42
2022/03/23 02:14:38;;;;;;;58.30;31.90;;;;;;;8.90;57.76;102157.50;5073921;28;20032;-42
2022/03/23 02:17:05;;;;;;;53.40;30.73;;;;;;;8.78;58.22;102155.94;5075575;28;20423;-42
2022/03/23 02:19:31;;;;;;;52.55;29.10;;;;;;;8.71;57.85;102152.94;5075399;28;20024;-42
2022/03/23 02:21:57;;;;;;;46.33;26.38;;;;;;;8.65;57.82;102146.31;5074069;28;20488;-43
2022/03/23 02:24:28;;;;;;;48.03;28.52;;;;;;;8.71;58.12;102156.50;5074603;28;20118;-43
2022/03/23 02:26:55;;;;;;;51.50;28.45;;;;;;;8.67;58.14;102157.78;5073309;28;20405;-43
2022/03/23 02:29:23;;;;;;;50.85;27.45;;;;;;;8.58;58.25;102139.84;5074504;28;20040;-48
2022/03/23 02:31:49;;;;;;;51.92;28.60;;;;;;;8.60;59.02;102153.94;5074830;28;20500;-42
2022/03/23 02:34:15;;;;;;;57.50;29.65;;;;;;;8.61;58.92;102150.28;5074440;28;20036;-42
2022/03/23 02:36:40;;;;;;;55.08;31.48;;;;;;;8.61;58.73;102163.66;5074367;28;20033;-42
2022/03/23 02:39:06;;;;;;;54.67;31.58;;;;;;;8.50;59.64;102151.22;5074783;28;20067;-42
2022/03/23 02:41:32;;;;;;;57.05;31.63;;;;;;;8.55;59.30;102166.91;5075007;28;20025;-43
2022/03/23 02:43:59;;;;;;;57.63;29.73;;;;;;;8.47;59.22;102158.72;5074587;28;20028;-43
2022/03/23 02:46:25;;;;;;;54.53;31.85;;;;;;;8.40;59.88;102154.88;5073811;28;20036;-43
2022/03/23 02:48:52;;;;;;;60.22;32.70;;;;;;;8.48;58.85;102165.75;5073400;28;20029;-43
2022/03/23 02:51:18;;;;;;;49.38;27.20;;;;;;;8.33;59.25;102149.22;5075355;28;20031;-45
2022/03/23 03:02:36;;;;;;;43.13;27.00;;;;;;;8.14;60.27;102160.72;5065264;28;20400;-43
2022/03/23 03:05:04;;;;;;;71.95;32.03;;;;;;;8.05;60.42;102164.19;5074072;28;20123;-45
2022/03/23 03:08:44;;;;;;;48.85;28.08;;;;;;;7.91;60.72;102146.66;5074439;28;20489;-44
2022/03/23 03:10:15;;;;;;;53.08;28.42;;;;;;;8.01;60.92;102168.13;5073556;28;20032;-44
2022/03/23 03:12:42;;;;;;;47.38;26.55;;;;;;;7.94;60.81;102152.59;5072973;28;20480;-43
2022/03/23 03:15:10;;;;;;;53.30;29.73;;;;;;;7.91;61.28;102160.03;5074713;28;20041;-43
2022/03/23 03:17:36;;;;;;;58.63;31.35;;;;;;;7.86;60.94;102156.94;5073116;28;20062;-44
2022/03/23 03:20:04;;;;;;;48.00;28.70;;;;;;;7.76;61.53;102154.19;5074279;28;20028;-42
2022/03/23 03:22:38;;;;;;;52.40;28.67;;;;;;;7.75;61.29;102161.38;5073941;28;20043;-44
2022/03/23 03:25:05;;;;;;;;;;;;;;;7.70;63.12;102166.28;5075036;28;20036;-43
2022/03/23 03:27:35;;;;;;;57.63;31.42;;;;;;;7.63;61.21;102157.09;5072988;28;19927;-46
2022/03/23 03:30:04;;;;;;;58.53;31.15;;;;;;;7.66;61.48;102169.38;5073090;28;20043;-43
2022/03/23 03:32:30;;;;;;;63.28;30.35;;;;;;;7.51;61.85;102167.03;5073361;28;20107;-44
2022/03/23 03:34:56;;;;;;;57.50;29.77;;;;;;;7.44;61.55;102171.19;5074707;28;20024;-43
2022/03/23 03:37:21;;;;;;;57.50;30.25;;;;;;;7.42;61.55;102180.34;5073875;28;20712;-42
2022/03/23 03:39:47;;;;;;;50.05;28.52;;;;;;;7.49;61.65;102187.69;5056267;28;20032;-44
2022/03/23 03:42:14;;;;;;;49.30;26.73;;;;;;;7.42;61.65;102188.34;5073804;28;20064;-42
2022/03/23 03:44:39;;;;;;;55.13;30.10;;;;;;;7.31;61.81;102174.06;5055987;28;20119;-42
2022/03/23 03:47:05;;;;;;;58.95;31.25;;;;;;;7.23;62.76;102178.38;5072475;28;20476;-42
2022/03/23 03:49:31;;;;;;;64.93;32.65;;;;;;;7.21;62.93;102183.84;5073950;28;20060;-43
2022/03/23 03:51:58;;;;;;;53.22;30.23;;;;;;;7.12;63.07;102169.44;5074001;28;20032;-45
2022/03/23 03:54:24;;;;;;;58.47;31.52;;;;;;;7.18;62.35;102194.78;5074175;28;20037;-46
2022/03/23 03:56:50;;;;;;;61.35;31.85;;;;;;;7.16;62.65;102191.41;5074118;28;20465;-43
2022/03/23 03:59:16;;;;;;;63.90;32.90;;;;;;;7.14;62.60;102191.53;5074267;28;20044;-41
2022/03/23 04:01:42;;;;;;;65.78;33.83;;;;;;;7.06;63.71;102188.66;5072502;28;20031;-42
2022/03/23 04:04:08;;;;;;;62.92;32.25;;;;;;;7.08;63.26;102191.19;5073700;28;20103;-42
2022/03/23 04:06:33;;;;;;;80.10;39.28;;;;;;;7.17;63.92;102182.41;5072274;28;20039;-42
2022/03/23 04:08:59;;;;;;;73.40;33.25;;;;;;;7.23;62.23;102181.06;5073591;28;20040;-41
2022/03/23 04:11:26;;;;;;;67.70;33.92;;;;;;;7.17;62.74;102179.75;5073781;28;20147;-41
2022/03/23 04:13:52;;;;;;;56.15;30.73;;;;;;;7.08;63.33;102185.84;5071810;28;20161;-52
2022/03/23 04:16:18;;;;;;;65.13;30.60;;;;;;;7.03;62.78;102186.22;5073529;28;20035;-42
2022/03/23 04:18:43;;;;;;;77.18;38.08;;;;;;;6.97;64.09;102197.44;5072953;28;20032;-42
2022/03/23 04:21:09;;;;;;;69.93;35.85;;;;;;;6.94;63.53;102189.66;5072557;28;20029;-43
2022/03/23 04:23:35;;;;;;;69.30;36.47;;;;;;;6.86;64.04;102192.97;5072556;28;20020;-44
2022/03/23 04:26:01;;;;;;;76.57;37.83;;;;;;;6.74;64.78;102186.84;5074936;28;20472;-42
2022/03/23 04:28:27;;;;;;;78.13;38.28;;;;;;;6.71;64.68;102195.09;5075787;28;20033;-44
2022/03/23 04:30:53;;;;;;;78.35;36.25;;;;;;;6.70;64.82;102195.19;5059252;28;20453;-42
2022/03/23 04:33:18;;;;;;;84.97;37.13;;;;;;;6.70;64.48;102196.03;5075546;28;20339;-43
2022/03/23 04:35:45;;;;;;;86.85;40.92;;;;;;;6.71;64.52;102203.09;5076312;28;20029;-41
2022/03/23 04:38:11;;;;;;;79.47;36.63;;;;;;;6.81;63.44;102203.19;5077000;28;20437;-42
2022/03/23 04:40:37;;;;;;;74.25;36.80;;;;;;;6.70;64.12;102204.06;5077078;28;20028;-45
2022/03/23 04:43:02;;;;;;;67.72;33.90;;;;;;;6.67;64.02;102207.00;5076450;28;20342;-44
2022/03/23 04:45:28;;;;;;;68.25;35.90;;;;;;;6.61;64.51;102210.13;5076975;28;20043;-44
2022/03/23 04:47:54;;;;;;;68.43;33.92;;;;;;;6.52;64.58;102203.75;5075407;28;20036;-42
2022/03/23 04:50:20;;;;;;;74.15;34.78;;;;;;;6.46;64.80;102203.38;5076394;28;20028;-43
2022/03/23 04:52:47;;;;;;;58.95;31.23;;;;;;;6.39;64.96;102200.38;5076535;28;20522;-43
2022/03/23 04:55:15;;;;;;;70.60;36.45;;;;;;;6.31;65.70;102190.28;5076925;28;20043;-43
2022/03/23 04:57:42;;;;;;;70.45;34.25;;;;;;;6.32;64.96;102192.00;5075276;28;20411;-46
2022/03/23 05:00:10;;;;;;;65.25;30.83;;;;;;;6.18;65.43;102193.13;5076813;28;20020;-42
2022/03/23 05:02:38;;;;;;;77.97;37.17;;;;;;;6.17;65.48;102195.91;5076215;28;20483;-43
2022/03/23 05:05:06;;;;;;;66.55;35.40;;;;;;;6.10;65.42;102200.03;5076279;28;20044;-45
2022/03/23 05:07:32;;;;;;;72.70;37.92;;;;;;;6.19;65.83;102218.81;5076845;28;20025;-42
2022/03/23 05:09:58;;;;;;;77.03;37.50;;;;;;;6.14;65.15;102215.66;5075214;28;20112;-43
2022/03/23 05:12:24;;;;;;;74.90;38.30;;;;;;;6.13;65.71;102221.09;5075838;28;20131;-42
2022/03/23 05:14:50;;;;;;;76.38;37.90;;;;;;;6.09;65.41;102208.97;5076061;28;20444;-42
2022/03/23 05:17:16;;;;;;;76.80;36.28;;;;;;;6.15;65.82;102212.03;5074312;28;20543;-42
2022/03/23 05:19:42;;;;;;;74.45;37.92;;;;;;;6.09;65.75;102198.31;5074718;28;20029;-43
2022/03/23 05:22:08;;;;;;;74.47;36.45;;;;;;;6.11;65.84;102204.38;5091030;28;20037;-44
2022/03/23 05:24:34;;;;;;;73.40;38.58;;;;;;;6.10;66.27;102210.69;5075889;28;20040;-44
2022/03/23 05:27:00;;;;;;;68.45;34.65;;;;;;;6.05;65.53;102213.72;5076347;28;20029;-44
2022/03/23 05:29:27;;;;;;;74.03;36.03;;;;;;;5.99;65.89;102214.19;5091380;28;20028;-44
2022/03/23 05:31:53;;;;;;;84.85;37.78;;;;;;;5.92;66.32;102202.28;5074077;28;20454;-40
2022/03/23 05:34:18;;;;;;;76.50;37.75;;;;;;;5.99;65.95;102208.88;5074826;28;20032;-41
2022/03/23 05:36:44;;;;;;;70.63;35.17;;;;;;;5.90;66.37;102217.56;5075743;28;20062;-41
2022/03/23 05:39:10;;;;;;;86.47;40.47;;;;;;;5.73;67.21;102224.19;5075861;28;20435;-41
2022/03/23 05:41:36;;;;;;;81.20;39.75;;;;;;;5.62;67.70;102236.50;5075688;28;20090;-41
2022/03/23 05:44:01;;;;;;;82.68;40.08;;;;;;;5.62;68.58;102246.34;5075578;28;20040;-41
2022/03/23 05:46:27;;;;;;;82.07;38.10;;;;;;;5.64;67.09;102239.06;5074340;28;20326;-41
2022/03/23 05:48:54;;;;;;;78.25;37.08;;;;;;;5.65;67.71;102240.78;5075738;28;20411;-43
2022/03/23 05:51:20;;;;;;;85.85;41.35;;;;;;;5.68;68.10;102235.19;5058369;28;20357;-42
2022/03/23 05:53:46;;;;;;;77.90;38.90;;;;;;;5.67;67.43;102248.66;5058327;28;20033;-40
2022/03/23 05:56:11;;;;;;;92.57;42.45;;;;;;;5.61;68.85;102249.97;5075876;28;20078;-42
2022/03/23 05:58:37;;;;;;;78.32;38.88;;;;;;;5.61;68.07;102245.50;5074440;28;20033;-42
2022/03/23 06:01:03;;;;;;;89.50;41.20;;;;;;;5.55;68.47;102235.31;5075234;28;20043;-43
2022/03/23 06:03:29;;;;;;;82.18;37.67;;;;;;;5.50;68.11;102229.47;5074985;28;20510;-42
2022/03/23 06:05:56;;;;;;;83.13;40.35;;;;;;;5.70;68.27;102238.63;5075113;28;20033;-42
2022/03/23 06:08:21;;;;;;;86.40;42.40;;;;;;;5.68;68.64;102247.69;5074980;28;20461;-42
2022/03/23 06:10:47;;;;;;;87.55;40.22;;;;;;;5.67;68.17;102243.34;5075606;28;20039;-45
2022/03/23 06:13:13;;;;;;;80.88;38.58;;;;;;;5.70;67.99;102245.75;5074809;28;20477;-42
2022/03/23 06:15:39;;;;;;;87.70;40.30;;;;;;;5.70;67.46;102243.06;5074969;28;20025;-42
2022/03/23 06:18:05;;;;;;;78.45;36.78;;;;;;;5.72;67.89;102243.81;5075041;28;20373;-45
2022/03/23 06:20:31;;;;;;;93.82;44.42;;;;;;;5.75;68.48;102243.59;5075160;28;20033;-44
2022/03/23 06:22:56;;;;;;;89.55;42.22;;;;;;;5.74;66.69;102233.88;5075058;28;20025;-42
2022/03/23 06:25:25;;;;;;;105.35;45.03;;;;;;;5.67;68.56;102252.16;5073412;28;20024;-43
2022/03/23 06:27:51;;;;;;;96.32;44.83;;;;;;;5.55;69.42;102248.63;5073148;28;20035;-45
2022/03/23 06:30:17;;;;;;;103.03;47.40;;;;;;;5.52;70.35;102278.16;5073808;28;20032;-44
2022/03/23 06:32:42;;;;;;;87.80;43.42;;;;;;;5.54;70.21;102267.41;5074612;28;20036;-42
2022/03/23 06:35:08;;;;;;;98.97;41.53;;;;;;;5.61;69.43;102266.81;5074731;28;20024;-46
2022/03/23 06:37:35;;;;;;;92.30;42.83;;;;;;;5.73;68.18;102266.84;5074600;28;20479;-44
2022/03/23 06:40:03;;;;;;;96.72;42.63;;;;;;;5.76;68.60;102269.28;5073835;28;20028;-44
2022/03/23 06:42:29;;;;;;;99.75;42.50;;;;;;;5.81;68.16;102262.63;5074529;28;20404;-41
2022/03/23 06:44:55;;;;;;;95.82;44.10;;;;;;;5.85;68.46;102265.03;5074487;28;20063;-43
2022/03/23 06:47:20;;;;;;;94.53;38.33;;;;;;;5.78;68.15;102252.19;5074374;28;20074;-42
2022/03/23 06:49:47;;;;;;;91.80;42.53;;;;;;;5.88;68.53;102267.47;5073931;28;20033;-42
2022/03/23 06:52:17;;;;;;;80.30;39.45;;;;;;;5.96;68.82;102257.09;5074715;28;20055;-42
2022/03/23 06:54:48;;;;;;;86.25;40.50;;;;;;;5.96;68.69;102254.44;5075222;28;20028;-43
2022/03/23 06:57:16;;;;;;;90.07;41.03;;;;;;;5.96;68.23;102257.97;5090909;28;20042;-41
2022/03/23 06:59:43;;;;;;;81.72;38.60;;;;;;;6.04;68.25;102261.84;5075172;28;20082;-43
2022/03/23 07:02:11;;;;;;;79.57;40.47;;;;;;;6.03;69.10;102273.47;5090413;28;20039;-43
2022/03/23 07:04:38;;;;;;;104.72;48.42;;;;;;;6.10;69.04;102261.38;5073866;28;20123;-41
2022/03/23 07:07:04;;;;;;;102.10;47.13;;;;;;;6.25;68.45;102284.16;5074698;28;20492;-43
2022/03/23 07:09:31;;;;;;;97.30;43.65;;;;;;;6.20;70.11;102294.34;5073273;28;20029;-44
2022/03/23 07:12:05;;;;;;;102.65;46.08;;;;;;;6.28;69.01;102288.41;5073592;28;20401;-41
2022/03/23 07:14:33;;;;;;;94.47;43.08;;;;;;;6.35;68.45;102302.97;5073676;28;20438;-43
2022/03/23 07:17:00;;;;;;;79.63;39.33;;;;;;;6.44;68.03;102296.91;5075169;28;20071;-42
2022/03/23 07:19:30;;;;;;;93.13;40.63;;;;;;;6.46;67.73;102305.63;5090601;28;20055;-41
2022/03/23 07:21:56;;;;;;;89.75;41.95;;;;;;;6.49;69.08;102301.91;5073494;28;20025;-42
2022/03/23 07:24:22;;;;;;;88.70;42.83;;;;;;;6.44;69.82;102290.72;5072412;28;20047;-41
2022/03/23 07:26:49;;;;;;;90.15;45.15;;;;;;;6.55;69.41;102302.25;5073354;28;20037;-42
2022/03/23 07:29:16;;;;;;;107.03;47.17;;;;;;;6.61;70.17;102302.72;5073908;28;20024;-46
2022/03/23 07:31:43;;;;;;;85.82;42.85;;;;;;;6.65;69.17;102305.03;5074069;28;20028;-41
2022/03/23 07:34:18;;;;;;;82.40;39.55;;;;;;;6.74;68.05;102306.97;5074000;28;20032;-44
2022/03/23 07:36:44;;;;;;;;;;;;;;;6.83;69.79;102315.22;5073490;28;20507;-41
2022/03/23 07:39:15;;;;;;;82.05;37.85;;;;;;;6.89;68.29;102314.72;5072283;28;19915;-42
2022/03/23 07:41:41;;;;;;;80.55;38.90;;;;;;;6.96;68.38;102314.13;5073690;28;20041;-43
2022/03/23 07:44:07;;;;;;;96.82;40.70;;;;;;;7.02;67.20;102311.91;5073497;28;20034;-40
2022/03/23 07:46:36;;;;;;;83.13;37.80;;;;;;;7.12;67.81;102312.84;5072823;28;20028;-41
2022/03/23 07:49:02;;;;;;;81.93;39.22;;;;;;;7.13;67.73;102318.09;5074492;28;20032;-40
2022/03/23 07:51:28;;;;;;;85.75;39.88;;;;;;;7.15;67.96;102308.13;5073036;28;20057;-42
2022/03/23 07:53:54;;;;;;;59.45;30.92;;;;;;;7.27;67.73;102314.25;5073605;28;20044;-42
2022/03/23 07:56:21;;;;;;;89.50;40.47;;;;;;;7.38;68.38;102331.25;5074310;28;20477;-40
2022/03/23 07:58:51;;;;;;;112.70;51.00;;;;;;;7.47;67.79;102322.47;5090030;28;20396;-40
2022/03/23 08:01:20;;;;;;;94.43;43.90;;;;;;;7.56;67.03;102327.91;5074982;28;20060;-42
2022/03/23 08:03:46;;;;;;;109.80;44.38;;;;;;;7.49;67.06;102316.00;5077792;28;20035;-42
2022/03/23 08:06:12;;;;;;;76.72;36.83;;;;;;;7.65;66.57;102328.97;5077779;28;20032;-43
2022/03/23 08:08:38;;;;;;;80.07;40.45;;;;;;;7.78;67.39;102330.59;5076230;28;20082;-44
2022/03/23 08:11:04;;;;;;;96.57;46.20;;;;;;;7.89;68.24;102333.22;5077515;28;20036;-41
2022/03/23 08:13:34;;;;;;;96.32;43.03;;;;;;;8.07;66.67;102331.66;5076334;28;20050;-42
2022/03/23 08:16:07;;;;;;;120.60;53.58;;;;;;;8.24;66.54;102334.72;5076998;28;20037;-42
2022/03/23 08:18:34;;;;;;;130.82;58.55;;;;;;;8.32;66.57;102327.72;5078561;28;20052;-44
2022/03/23 08:21:02;;;;;;;122.53;56.92;;;;;;;8.34;65.46;102312.38;5093119;28;20025;-41
2022/03/23 08:23:30;;;;;;;118.45;54.47;;;;;;;8.58;64.80;102332.66;5076502;28;20468;-43
2022/03/23 08:26:00;;;;;;;106.32;49.60;;;;;;;8.67;64.84;102331.00;5076081;28;20055;-45
2022/03/23 08:28:26;;;;;;;117.32;54.95;;;;;;;8.78;64.74;102322.84;5076111;28;20126;-42
2022/03/23 08:30:52;;;;;;;96.68;45.83;;;;;;;8.87;64.71;102326.56;5076867;28;20063;-41
2022/03/23 08:33:19;;;;;;;96.95;45.47;;;;;;;9.00;64.29;102323.63;5076351;28;20038;-47
2022/03/23 08:35:46;;;;;;;129.82;59.80;;;;;;;9.08;64.58;102321.97;5077014;28;20031;-41
2022/03/23 08:38:13;;;;;;;126.57;58.53;;;;;;;9.19;63.83;102334.38;5075780;28;20052;-41
2022/03/23 08:40:39;;;;;;;114.50;52.60;;;;;;;9.36;63.33;102324.84;5076012;28;20491;-42
2022/03/23 08:43:12;;;;;;;123.82;57.50;;;;;;;9.49;63.16;102340.66;5077313;28;20032;-41
2022/03/23 08:45:42;;;;;;;119.07;54.28;;;;;;;9.64;63.22;102341.94;5077443;28;20051;-41
2022/03/23 08:48:09;;;;;;;106.22;49.40;;;;;;;9.77;62.45;102335.41;5093074;28;20040;-41
2022/03/23 08:50:36;;;;;;;101.75;47.88;;;;;;;9.93;62.08;102333.00;5078582;28;20028;-43
2022/03/23 08:53:04;;;;;;;121.50;57.60;;;;;;;10.04;62.21;102323.94;5076838;28;20512;-42
2022/03/23 08:55:32;;;;;;;120.00;55.03;;;;;;;10.37;61.58;102343.28;5092957;28;20028;-42
2022/03/23 08:58:00;;;;;;;119.05;55.85;;;;;;;10.63;61.31;102340.78;5075628;28;20066;-40
2022/03/23 09:00:27;;;;;;;103.97;54.58;;;;;;;10.82;60.76;102337.97;5092717;28;20033;-40
2022/03/23 09:02:55;;;;;;;94.70;46.20;;;;;;;10.98;60.40;102341.88;5077246;28;20064;-42
2022/03/23 09:05:25;;;;;;;101.20;51.15;;;;;;;11.14;60.38;102341.22;5075870;28;20032;-42
2022/03/23 09:07:53;;;;;;;90.78;46.80;;;;;;;11.11;60.25;102342.38;5075688;28;20029;-41
2022/03/23 09:10:24;;;;;;;98.45;48.35;;;;;;;11.36;60.27;102330.00;5092297;28;20035;-42
2022/03/23 09:12:54;;;;;;;95.25;48.03;;;;;;;11.69;59.32;102338.41;5074815;28;20049;-42
2022/03/23 09:15:21;;;;;;;102.57;47.38;;;;;;;11.98;58.70;102329.25;5076713;28;20107;-43
2022/03/23 09:17:48;;;;;;;99.35;47.33;;;;;;;12.23;58.04;102345.59;5092277;28;20040;-41
2022/03/23 09:20:14;;;;;;;104.80;48.92;;;;;;;12.35;57.00;102320.03;5076549;28;20031;-42
2022/03/23 09:22:41;;;;;;;92.45;44.60;;;;;;;12.61;56.93;102335.34;5077023;28;20031;-42
2022/03/23 09:25:11;;;;;;;87.60;41.70;;;;;;;12.85;56.39;102338.19;5076601;28;20029;-45
2022/03/23 09:27:42;;;;;;;94.45;44.25;;;;;;;13.31;55.38;102338.66;5076369;28;20385;-45
2022/03/23 09:30:11;;;;;;;90.40;43.90;;;;;;;14.96;51.69;102339.31;5076665;28;20067;-44
2022/03/23 09:32:43;;;;;;;88.07;44.10;;;;;;;16.50;48.05;102334.72;5076482;28;20115;-40
2022/03/23 09:35:10;;;;;;;90.15;44.38;;;;;;;17.36;45.13;102329.53;5076000;28;20033;-45
2022/03/23 09:37:53;;;;;;;80.38;40.95;;;;;;;18.12;42.56;102318.09;5091684;28;20527;-40
2022/03/23 09:40:25;;;;;;;84.28;44.28;;;;;;;18.69;41.17;102321.56;5092161;28;20028;-41
2022/03/23 09:42:56;;;;;;;86.90;44.45;;;;;;;19.37;40.66;102323.53;5092106;28;20033;-42
2022/03/23 09:45:46;;;;;;;71.93;39.05;;;;;;;20.41;41.53;102323.91;5091843;28;20025;-44
2022/03/23 09:48:12;;;;;;;67.53;38.05;;;;;;;21.17;38.01;102323.25;5075540;28;20089;-41
2022/03/23 09:50:43;;;;;;;62.80;38.03;;;;;;;21.51;36.66;102321.16;5076055;28;20060;-40
2022/03/23 09:53:10;;;;;;;66.22;38.03;;;;;;;21.93;37.08;102312.38;5076543;28;20045;-41
2022/03/23 09:55:38;;;;;;;66.43;37.25;;;;;;;22.61;35.58;102323.28;5074756;28;20403;-46
2022/03/23 09:58:12;;;;;;;123.00;42.70;;;;;;;22.98;35.96;102316.94;5074830;28;20505;-43
2022/03/23 10:00:44;;;;;;;82.55;38.17;;;;;;;23.57;35.04;102317.16;5058324;28;20036;-43
2022/03/23 10:03:43;;;;;;;68.10;37.97;;;;;;;23.55;30.66;102319.28;5058139;28;20039;-41
2022/03/23 10:06:53;;;;;;;50.47;33.17;;;;;;;24.08;29.90;102307.44;5045278;28;20025;-42
2022/03/23 10:09:55;;;;;;;60.45;34.47;;;;;;;24.45;28.31;102307.16;5075685;28;20377;-41
2022/03/23 10:13:01;;;;;;;58.90;33.53;;;;;;;25.03;28.11;102312.72;5075223;28;20063;-43
2022/03/23 10:16:06;;;;;;;60.60;35.40;;;;;;;25.61;29.48;102295.09;5063389;28;20415;-43
2022/03/23 10:18:57;;;;;;;50.72;25.27;;;;;;;25.19;25.47;102302.88;5048797;28;20039;-45
2022/03/23 10:21:27;;;;;;;34.88;24.92;;;;;;;25.52;28.79;102299.34;5090857;28;20028;-42
2022/03/23 10:24:33;;;;;;;48.95;28.67;;;;;;;25.77;26.53;102303.59;5089591;28;20030;-42
2022/03/23 10:27:07;;;;;;;39.78;25.35;;;;;;;26.30;26.99;102290.34;5063102;28;20033;-43
2022/03/23 10:29:40;;;;;;;36.45;23.35;;;;;;;26.93;24.51;102285.34;5074918;28;20028;-43
2022/03/23 10:32:08;;;;;;;28.58;19.17;;;;;;;26.87;25.69;102283.63;5073120;28;20459;-42
2022/03/23 10:34:53;;;;;;;26.33;18.77;;;;;;;27.14;20.69;102278.94;5073925;28;20481;-43
2022/03/23 10:37:29;;;;;;;28.48;19.88;;;;;;;27.27;24.14;102283.22;5072609;28;20067;-44
2022/03/23 10:39:57;;;;;;;30.90;20.17;;;;;;;27.79;26.03;102276.19;5073537;28;20032;-42
2022/03/23 10:42:26;;;;;;;23.90;17.40;;;;;;;28.08;20.98;102273.06;5074425;28;20035;-45
2022/03/23 10:45:16;;;;;;;30.05;18.33;;;;;;;27.57;19.77;102270.78;5057141;28;20028;-43
2022/03/23 10:47:44;;;;;;;26.50;18.55;;;;;;;27.44;20.09;102274.81;5073958;28;20029;-43
2022/03/23 10:50:15;;;;;;;25.77;19.05;;;;;;;27.58;22.02;102270.53;5075018;28;20035;-42
2022/03/23 10:53:00;;;;;;;28.48;18.73;;;;;;;28.03;21.44;102278.56;5074035;28;20032;-43
2022/03/23 10:55:29;;;;;;;25.70;17.98;;;;;;;29.22;22.58;102270.44;5090904;28;20028;-46
2022/03/23 10:58:24;;;;;;;23.30;17.50;;;;;;;29.11;18.85;102271.50;5075346;28;20029;-45
2022/03/23 11:00:58;;;;;;;23.88;16.98;;;;;;;29.71;19.38;102260.72;5074203;28;20078;-43
2022/03/23 11:03:49;;;;;;;26.65;17.10;;;;;;;29.44;17.96;102261.00;5073702;28;20036;-41
2022/03/23 11:06:25;;;;;;;26.23;16.23;;;;;;;30.01;18.68;102253.47;5075035;28;20032;-42
2022/03/23 11:08:52;;;;;;;27.77;16.42;;;;;;;30.05;21.75;102254.56;5075434;28;20074;-44
2022/03/23 11:16:54;;;;;;;21.63;15.50;;;;;;;30.28;17.89;102244.78;5077138;28;20028;-41
2022/03/23 11:19:24;;;;;;;28.13;16.63;;;;;;;30.60;16.67;102249.09;5074654;28;20032;-42
2022/03/23 11:22:12;;;;;;;18.10;14.48;;;;;;;30.84;15.89;102249.22;5091327;28;20032;-42
2022/03/23 11:24:46;;;;;;;24.00;15.38;;;;;;;31.34;17.00;102244.41;5090982;28;20031;-48
2022/03/23 11:27:18;;;;;;;23.80;15.13;;;;;;;31.98;17.41;102247.97;5056995;28;20033;-44
2022/03/23 11:29:47;;;;;;;23.00;13.43;;;;;;;31.66;17.78;102243.03;5090767;28;20405;-44
2022/03/23 11:32:15;;;;;;;19.67;13.75;;;;;;;31.57;15.17;102242.81;5074975;28;20031;-42
2022/03/23 11:34:49;;;;;;;13.82;12.15;;;;;;;32.14;16.52;102237.50;5074972;28;20025;-44